Time;durP1;ratioP1;P1;durP2;ratioP2;P2;SDS_P1;SDS_P2;PMS_P1;PMS_P2;Temp;Humidity;BMP_temperature;BMP_pressure;BME280_temperature;BME280_humidity;BME280_pressure;Samples;Min_cycle;Max_cycle;Signal;HPM_P1;HPM_P2
2022/01/14 00:00:35;;;;;;;;;;;;;;;-0.26;100.00;103398.03;2567023;30;137214;-35
2022/01/14 00:03:05;;;;;;;25.08;11.80;;;;;;;-0.15;100.00;103396.53;2568565;30;137051;-36
2022/01/14 00:05:33;;;;;;;;;;;;;;;-0.17;100.00;103392.19;2568591;30;138909;-36
2022/01/14 00:08:01;;;;;;;23.33;10.95;;;;;;;-0.19;100.00;103377.97;2568638;30;137342;-36
2022/01/14 00:10:31;;;;;;;;;;;;;;;-0.20;100.00;103365.50;2567343;30;137405;-36
2022/01/14 00:13:15;;;;;;;22.88;11.02;;;;;;;-0.23;100.00;103371.03;2568652;30;137117;-36
2022/01/14 00:15:43;;;;;;;22.67;10.98;;;;;;;-0.20;100.00;103374.44;2568614;30;137722;-36
2022/01/14 00:18:11;;;;;;;22.02;10.77;;;;;;;-0.22;100.00;103370.09;2568488;30;137821;-36
2022/01/14 00:20:39;;;;;;;25.27;11.27;;;;;;;-0.23;100.00;103371.91;2568333;30;138465;-36
2022/01/14 00:23:08;;;;;;;24.35;11.35;;;;;;;-0.20;100.00;103361.03;2568199;30;138776;-36
2022/01/14 00:33:56;;;;;;;26.15;12.48;;;;;;;-0.18;100.00;103367.16;2568183;30;138267;-36
2022/01/14 00:36:24;;;;;;;;;;;;;;;-0.15;100.00;103364.31;2569899;30;138358;-36
2022/01/14 00:38:52;;;;;;;28.77;12.85;;;;;;;-0.13;100.00;103358.91;2566166;30;137931;-36
2022/01/14 00:41:20;;;;;;;27.52;13.82;;;;;;;-0.19;100.00;103370.81;2568161;30;138157;-36
2022/01/14 00:43:49;;;;;;;30.70;13.75;;;;;;;-0.21;100.00;103378.06;2568197;30;136820;-36
2022/01/14 00:46:17;;;;;;;27.00;12.88;;;;;;;-0.22;100.00;103375.44;2568003;30;138509;-36
2022/01/14 00:48:45;;;;;;;;;;;;;;;-0.20;100.00;103365.50;2569570;30;136868;-41
2022/01/14 00:51:13;;;;;;;29.20;13.10;;;;;;;-0.19;100.00;103375.28;2568290;30;136986;-41
2022/01/14 00:53:41;;;;;;;;;;;;;;;-0.19;100.00;103377.97;2568526;30;137705;-41
2022/01/14 00:56:25;;;;;;;29.77;12.57;;;;;;;-0.18;100.00;103375.22;2565790;30;138335;-40
2022/01/14 01:01:45;;;;;;;25.02;11.88;;;;;;;-0.21;100.00;103375.38;2566767;30;138496;-41
2022/01/14 01:04:30;;;;;;;25.08;12.40;;;;;;;-0.21;100.00;103377.19;2569201;30;137969;-41
2022/01/14 01:07:00;;;;;;;34.13;12.52;;;;;;;-0.23;100.00;103374.59;2567090;30;137382;-41
2022/01/14 01:09:30;;;;;;;28.70;13.27;;;;;;;-0.22;100.00;103383.50;2568111;30;137428;-41
2022/01/14 01:14:44;;;;;;;28.30;11.93;;;;;;;-0.17;100.00;103376.97;2567401;30;137341;-41
2022/01/14 01:17:13;;;;;;;22.95;11.93;;;;;;;-0.21;100.00;103371.81;2569009;30;139076;-40
2022/01/14 01:19:42;;;;;;;22.95;11.63;;;;;;;-0.25;100.00;103373.81;2568184;30;137726;-41
2022/01/14 01:22:09;;;;;;;25.55;11.68;;;;;;;-0.24;100.00;103378.22;2567402;30;139117;-41
2022/01/14 01:24:57;;;;;;;21.98;10.98;;;;;;;-0.19;100.00;103372.59;2568126;30;137965;-41
2022/01/14 01:27:25;;;;;;;22.77;11.70;;;;;;;-0.26;100.00;103377.44;2567313;30;138825;-41
2022/01/14 01:30:01;;;;;;;;;;;;;;;-0.26;100.00;103373.88;2565634;30;137409;-41
2022/01/14 01:32:28;;;;;;;23.05;9.65;;;;;;;-0.22;100.00;103362.91;2567971;30;137993;-41
2022/01/14 01:34:56;;;;;;;25.75;10.80;;;;;;;-0.18;100.00;103358.25;2567027;30;136873;-41
2022/01/14 01:37:24;;;;;;;23.77;10.82;;;;;;;-0.21;100.00;103361.97;2568983;30;139195;-41
2022/01/14 01:39:52;;;;;;;;;;;;;;;-0.26;100.00;103360.47;2568071;30;137548;-41
2022/01/14 01:42:26;;;;;;;24.92;10.98;;;;;;;-0.18;100.00;103363.59;2568324;30;138564;-41
2022/01/14 01:44:55;;;;;;;21.70;9.82;;;;;;;-0.15;100.00;103368.81;2568290;30;137290;-40
2022/01/14 01:47:26;;;;;;;20.52;11.07;;;;;;;-0.17;100.00;103358.19;2568158;30;138155;-40
2022/01/14 01:49:54;;;;;;;23.33;11.15;;;;;;;-0.13;100.00;103349.97;2568151;30;137652;-41
2022/01/14 01:52:25;;;;;;;21.33;10.55;;;;;;;-0.12;100.00;103357.94;2567015;30;138448;-41
2022/01/14 01:54:52;;;;;;;18.33;9.65;;;;;;;-0.18;100.00;103348.38;2565301;30;137509;-40
2022/01/14 01:57:20;;;;;;;21.63;10.35;;;;;;;-0.20;100.00;103344.03;2568018;30;138169;-40
2022/01/14 01:59:48;;;;;;;;;;;;;;;-0.20;100.00;103347.59;2568101;30;138368;-41
2022/01/14 02:02:16;;;;;;;20.88;10.10;;;;;;;-0.18;100.00;103339.44;2566074;30;138484;-41
2022/01/14 02:04:44;;;;;;;;;;;;;;;-0.24;100.00;103345.16;2569318;30;138397;-40
2022/01/14 02:07:15;;;;;;;22.60;10.52;;;;;;;-0.23;100.00;103342.41;2567297;30;136901;-41
2022/01/14 02:09:46;;;;;;;22.30;9.98;;;;;;;-0.26;100.00;103329.16;2569568;30;137670;-41
2022/01/14 02:12:14;;;;;;;18.50;9.75;;;;;;;-0.21;100.00;103343.19;2567730;30;138292;-41
2022/01/14 02:15:10;;;;;;;22.17;9.75;;;;;;;-0.22;100.00;103332.50;2568552;30;137669;-41
2022/01/14 02:17:36;;;;;;;20.35;10.05;;;;;;;-0.20;100.00;103331.50;2566695;30;139378;-41
2022/01/14 02:23:01;;;;;;;18.15;9.40;;;;;;;-0.24;100.00;103324.56;2568464;30;138462;-41
2022/01/14 02:25:29;;;;;;;18.58;9.15;;;;;;;-0.22;100.00;103329.84;2568328;30;138175;-41
2022/01/14 02:28:10;;;;;;;25.83;11.43;;;;;;;-0.20;100.00;103328.81;2568347;30;138378;-41
2022/01/14 02:30:40;;;;;;;19.48;9.88;;;;;;;-0.26;100.00;103318.41;2568436;30;137583;-41
2022/01/14 02:33:10;;;;;;;23.25;11.00;;;;;;;-0.27;100.00;103326.53;2565136;30;137215;-40
2022/01/14 02:35:39;;;;;;;18.77;10.25;;;;;;;-0.31;100.00;103326.69;2565438;30;137955;-41
2022/01/14 02:38:10;;;;;;;22.98;10.80;;;;;;;-0.30;100.00;103324.84;2568532;30;137462;-41
2022/01/14 02:40:39;;;;;;;21.65;12.20;;;;;;;-0.30;100.00;103328.41;2568062;30;137559;-41
2022/01/14 02:43:12;;;;;;;22.48;11.55;;;;;;;-0.31;100.00;103333.84;2565456;30;138238;-41
2022/01/14 02:45:42;;;;;;;22.65;11.23;;;;;;;-0.28;100.00;103330.16;2567570;30;137633;-41
2022/01/14 02:48:10;;;;;;;22.58;10.27;;;;;;;-0.19;100.00;103321.63;2566651;30;138308;-41
2022/01/14 02:50:42;;;;;;;19.77;9.68;;;;;;;-0.21;100.00;103313.66;2567282;30;136758;-41
2022/01/14 02:53:25;;;;;;;18.83;9.25;;;;;;;-0.20;100.00;103325.25;2568110;30;138369;-41
2022/01/14 02:55:55;;;;;;;17.58;8.23;;;;;;;-0.20;100.00;103315.41;2568061;30;137138;-41
2022/01/14 02:58:25;;;;;;;18.13;9.02;;;;;;;-0.24;100.00;103313.81;2568063;30;138489;-40
2022/01/14 03:00:54;;;;;;;25.02;9.98;;;;;;;-0.25;100.00;103319.25;2569153;30;137366;-40
2022/01/14 03:03:23;;;;;;;18.85;9.25;;;;;;;-0.24;100.00;103321.88;2565214;30;139039;-41
2022/01/14 03:05:54;;;;;;;20.05;10.05;;;;;;;-0.26;100.00;103318.41;2566468;30;138263;-40
2022/01/14 03:08:23;;;;;;;19.67;10.73;;;;;;;-0.26;100.00;103310.34;2565167;30;138387;-41
2022/01/14 03:11:05;;;;;;;17.40;9.82;;;;;;;-0.24;100.00;103311.16;2568086;30;136826;-41
2022/01/14 03:13:33;;;;;;;18.90;10.20;;;;;;;-0.22;100.00;103309.25;2567958;30;137503;-41
2022/01/14 03:16:02;;;;;;;20.58;9.80;;;;;;;-0.24;100.00;103299.53;2567621;30;137533;-40
2022/01/14 03:18:42;;;;;;;21.48;9.73;;;;;;;-0.22;100.00;103294.94;2567675;30;137497;-41
2022/01/14 03:21:13;;;;;;;20.98;10.88;;;;;;;-0.22;100.00;103297.63;2568506;30;137101;-41
2022/01/14 03:23:51;;;;;;;17.77;9.57;;;;;;;-0.22;100.00;103300.31;2567770;30;138209;-41
2022/01/14 03:26:21;;;;;;;28.38;10.75;;;;;;;-0.21;100.00;103294.88;2566772;30;137375;-40
2022/01/14 03:28:49;;;;;;;27.27;11.73;;;;;;;-0.23;100.00;103294.09;2568061;30;138234;-41
2022/01/14 03:31:17;;;;;;;19.40;9.82;;;;;;;-0.25;100.00;103293.31;2567335;30;138269;-41
2022/01/14 03:33:45;;;;;;;21.60;10.98;;;;;;;-0.24;100.00;103289.69;2567959;30;137174;-41
2022/01/14 03:36:12;;;;;;;;;;;;;;;-0.20;100.00;103285.00;2568751;30;136660;-41
2022/01/14 03:38:40;;;;;;;18.92;9.98;;;;;;;-0.24;100.00;103278.94;2567418;30;138407;-41
2022/01/14 03:41:08;;;;;;;;;;;;;;;-0.27;100.00;103270.19;2568105;30;138538;-41
2022/01/14 03:43:38;;;;;;;22.90;10.60;;;;;;;-0.27;100.00;103260.28;2568443;30;137185;-41
2022/01/14 03:46:06;;;;;;;20.75;10.77;;;;;;;-0.26;100.00;103264.75;2567829;30;138639;-41
2022/01/14 03:48:36;;;;;;;21.00;10.30;;;;;;;-0.23;100.00;103269.06;2567084;30;139215;-41
2022/01/14 03:51:04;;;;;;;21.02;10.35;;;;;;;-0.25;100.00;103265.59;2566692;30;138506;-41
2022/01/14 03:53:32;;;;;;;19.08;10.75;;;;;;;-0.22;100.00;103257.38;2568032;30;138367;-41
2022/01/14 03:56:00;;;;;;;31.67;12.02;;;;;;;-0.22;100.00;103255.56;2567510;30;137479;-41
2022/01/14 03:58:39;;;;;;;23.85;11.48;;;;;;;-0.22;100.00;103250.22;2568053;30;138331;-40
2022/01/14 04:01:07;;;;;;;21.88;10.77;;;;;;;-0.23;100.00;103245.78;2567296;30;137550;-41
2022/01/14 04:03:35;;;;;;;23.20;12.07;;;;;;;-0.28;100.00;103253.19;2567702;30;138375;-41
2022/01/14 04:06:04;;;;;;;;;;;;;;;-0.26;100.00;103248.66;2567325;30;138312;-41
2022/01/14 04:08:33;;;;;;;19.88;11.02;;;;;;;-0.26;100.00;103245.06;2565267;30;139371;-40
2022/01/14 04:11:03;;;;;;;19.83;10.23;;;;;;;-0.28;100.00;103247.81;2567640;30;137513;-41
2022/01/14 04:14:18;;;;;;;19.35;10.27;;;;;;;-0.32;100.00;103246.25;2569011;30;138128;-41
2022/01/14 04:16:27;;;;;;;20.80;10.48;;;;;;;-0.35;100.00;103260.72;2568013;30;138311;-41
2022/01/14 04:18:55;;;;;;;24.40;10.65;;;;;;;-0.39;100.00;103258.28;2568888;30;137390;-41
2022/01/14 04:21:23;;;;;;;;;;;;;;;-0.48;100.00;103251.56;2567120;30;136729;-41
2022/01/14 04:23:50;;;;;;;20.88;9.73;;;;;;;-0.47;100.00;103253.31;2567589;30;138562;-41
2022/01/14 04:26:18;;;;;;;20.55;10.05;;;;;;;-0.46;100.00;103250.56;2568793;30;137472;-40
2022/01/14 04:28:46;;;;;;;21.08;11.20;;;;;;;-0.44;100.00;103245.97;2568006;30;138387;-41
2022/01/14 04:31:14;;;;;;;21.75;11.02;;;;;;;-0.39;100.00;103250.22;2566552;30;137523;-41
2022/01/14 04:33:42;;;;;;;24.42;12.57;;;;;;;-0.39;100.00;103243.06;2569141;30;138514;-40
2022/01/14 04:36:10;;;;;;;;;;;;;;;-0.39;100.00;103242.19;2569022;30;137502;-41
2022/01/14 04:38:37;;;;;;;21.35;10.63;;;;;;;-0.45;100.00;103249.59;2568490;30;138583;-40
2022/01/14 04:41:05;;;;;;;21.73;11.25;;;;;;;-0.40;100.00;103243.13;2566715;30;138201;-41
2022/01/14 04:43:33;;;;;;;;;;;;;;;-0.41;100.00;103246.75;2569127;30;138394;-41
2022/01/14 04:46:24;;;;;;;25.27;12.05;;;;;;;-0.39;100.00;103239.50;2569526;30;136961;-41
2022/01/14 04:48:50;;;;;;;24.92;11.68;;;;;;;-0.35;100.00;103241.94;2566276;30;138753;-40
2022/01/14 04:51:20;;;;;;;;;;;;;;;-0.35;100.00;103239.25;2569164;30;136643;-41
2022/01/14 04:53:48;;;;;;;21.10;10.93;;;;;;;-0.38;100.00;103241.22;2569195;30;138337;-41
2022/01/14 04:56:17;;;;;;;26.35;11.38;;;;;;;-0.39;100.00;103247.53;2567861;30;137541;-40
2022/01/14 04:58:44;;;;;;;;;;;;;;;-0.43;100.00;103252.19;2569128;30;138276;-40
2022/01/14 05:01:12;;;;;;;26.13;12.25;;;;;;;-0.42;100.00;103234.28;2567346;30;138472;-40
2022/01/14 05:03:40;;;;;;;;;;;;;;;-0.44;100.00;103232.56;2568446;30;138348;-40
2022/01/14 05:06:08;;;;;;;28.02;11.90;;;;;;;-0.41;100.00;103227.97;2569021;30;137201;-41
2022/01/14 05:08:39;;;;;;;23.35;12.50;;;;;;;-0.46;100.00;103233.56;2567424;30;138182;-41
2022/01/14 05:13:45;;;;;;;27.58;14.20;;;;;;;-0.49;100.00;103231.06;2567033;30;138362;-41
2022/01/14 05:16:13;;;;;;;28.75;13.30;;;;;;;-0.54;100.00;103228.59;2567601;30;137139;-41
2022/01/14 05:18:41;;;;;;;;;;;;;;;-0.54;100.00;103233.97;2568956;30;137082;-41
2022/01/14 05:21:09;;;;;;;23.55;12.18;;;;;;;-0.57;100.00;103228.78;2568997;30;137142;-41
2022/01/14 05:23:37;;;;;;;25.13;14.07;;;;;;;-0.61;100.00;103240.59;2567550;30;137508;-41
2022/01/14 05:26:04;;;;;;;25.88;14.27;;;;;;;-0.63;100.00;103239.81;2566667;30;137488;-41
2022/01/14 05:28:32;;;;;;;26.90;14.57;;;;;;;-0.65;100.00;103252.44;2567725;30;138275;-41
2022/01/14 05:31:00;;;;;;;38.38;15.98;;;;;;;-0.65;100.00;103247.09;2567932;30;138382;-41
2022/01/14 05:33:28;;;;;;;;;;;;;;;-0.69;100.00;103242.84;2569101;30;137253;-40
2022/01/14 05:35:56;;;;;;;29.08;14.25;;;;;;;-0.68;100.00;103244.56;2569091;30;137283;-41
2022/01/14 05:38:24;;;;;;;27.02;15.10;;;;;;;-0.67;100.00;103239.09;2567864;30;138129;-40
2022/01/14 05:40:51;;;;;;;26.80;14.15;;;;;;;-0.68;100.00;103237.38;2568238;30;137542;-41
2022/01/14 05:43:19;;;;;;;31.00;15.43;;;;;;;-0.66;100.00;103235.50;2565962;30;138297;-41
2022/01/14 05:45:47;;;;;;;30.60;14.52;;;;;;;-0.67;100.00;103239.09;2568212;30;137835;-40
2022/01/14 05:48:15;;;;;;;;;;;;;;;-0.65;100.00;103237.25;2568767;30;139054;-41
2022/01/14 05:50:43;;;;;;;26.35;14.45;;;;;;;-0.63;100.00;103231.78;2568044;30;137090;-41
2022/01/14 05:53:11;;;;;;;29.38;15.20;;;;;;;-0.60;100.00;103235.19;2566677;30;138795;-41
2022/01/14 05:55:39;;;;;;;26.02;14.80;;;;;;;-0.63;100.00;103229.09;2568887;30;136626;-41
2022/01/14 05:58:07;;;;;;;;;;;;;;;-0.62;100.00;103220.09;2569085;30;138332;-41
2022/01/14 06:00:34;;;;;;;31.20;14.38;;;;;;;-0.66;100.00;103223.91;2567599;30;136662;-41
2022/01/14 06:03:02;;;;;;;;;;;;;;;-0.67;100.00;103220.34;2568159;30;138332;-41
2022/01/14 06:05:33;;;;;;;24.38;13.43;;;;;;;-0.68;100.00;103225.78;2568347;30;137081;-41
2022/01/14 06:08:01;;;;;;;28.35;14.40;;;;;;;-0.71;100.00;103221.44;2568666;30;138665;-41
2022/01/14 06:10:29;;;;;;;;;;;;;;;-0.71;100.00;103220.59;2567402;30;137633;-41
2022/01/14 06:12:57;;;;;;;27.55;13.63;;;;;;;-0.72;100.00;103227.75;2566910;30;138437;-41
2022/01/14 06:15:25;;;;;;;27.75;14.20;;;;;;;-0.75;100.00;103225.22;2566304;30;137844;-41
2022/01/14 06:17:53;;;;;;;;;;;;;;;-0.76;100.00;103227.06;2568557;30;138523;-41
2022/01/14 06:20:21;;;;;;;22.00;12.90;;;;;;;-0.76;100.00;103227.06;2567478;30;136759;-41
2022/01/14 06:22:48;;;;;;;;;;;;;;;-0.66;100.00;103230.16;2567879;30;137773;-41
2022/01/14 06:25:16;;;;;;;29.90;14.40;;;;;;;-0.67;100.00;103223.00;2566453;30;137393;-40
2022/01/14 06:27:44;;;;;;;;;;;;;;;-0.68;100.00;103231.16;2568557;30;137943;-41
2022/01/14 06:30:13;;;;;;;31.15;15.43;;;;;;;-0.60;100.00;103237.88;2566531;30;137156;-40
2022/01/14 06:32:41;;;;;;;33.83;15.70;;;;;;;-0.64;100.00;103241.66;2567417;30;137526;-41
2022/01/14 06:35:14;;;;;;;34.00;16.67;;;;;;;-0.62;100.00;103241.56;2568429;30;137238;-41
2022/01/14 06:37:42;;;;;;;31.33;16.10;;;;;;;-0.58;100.00;103227.03;2567503;30;137941;-41
2022/01/14 06:40:11;;;;;;;32.85;16.67;;;;;;;-0.49;100.00;103223.00;2567554;30;137005;-41
2022/01/14 06:42:44;;;;;;;32.40;15.93;;;;;;;-0.45;100.00;103221.91;2568591;30;138505;-41
2022/01/14 06:45:12;;;;;;;;;;;;;;;-0.37;100.00;103226.88;2567896;30;137000;-41
2022/01/14 06:47:39;;;;;;;31.27;14.55;;;;;;;-0.36;100.00;103213.38;2567037;30;137474;-40
2022/01/14 06:50:51;;;;;;;30.92;15.57;;;;;;;-0.33;100.00;103215.00;2570134;30;138097;-38
2022/01/14 06:53:19;;;;;;;34.15;16.00;;;;;;;-0.38;100.00;103211.72;2568745;30;138472;-38
2022/01/14 06:55:47;;;;;;;34.30;16.25;;;;;;;-0.39;100.00;103210.88;2570473;30;138194;-39
2022/01/14 06:58:15;;;;;;;30.65;15.95;;;;;;;-0.34;100.00;103214.16;2571388;30;138616;-38
2022/01/14 07:00:43;;;;;;;;;;;;;;;-0.28;100.00;103196.00;2569949;30;137396;-38
2022/01/14 07:03:11;;;;;;;33.97;15.27;;;;;;;-0.29;100.00;103205.84;2568465;30;138174;-38
2022/01/14 07:05:39;;;;;;;;;;;;;;;-0.31;100.00;103200.59;2569002;30;137791;-38
2022/01/14 07:08:06;;;;;;;26.35;13.27;;;;;;;-0.34;100.00;103192.72;2570422;30;138503;-39
2022/01/14 07:10:36;;;;;;;;;;;;;;;-0.34;100.00;103199.88;2567090;30;138882;-39
2022/01/14 07:13:04;;;;;;;31.55;14.68;;;;;;;-0.40;100.00;103209.09;2569573;30;138502;-38
2022/01/14 07:15:32;;;;;;;34.75;16.05;;;;;;;-0.37;100.00;103213.44;2569267;30;138242;-38
2022/01/14 07:18:00;;;;;;;33.10;14.55;;;;;;;-0.39;100.00;103204.63;2569426;30;139454;-38
2022/01/14 07:20:28;;;;;;;;;;;;;;;-0.34;100.00;103199.88;2570487;30;137888;-40
2022/01/14 07:22:56;;;;;;;31.27;12.27;;;;;;;-0.33;100.00;103205.16;2568122;30;138361;-38
2022/01/14 07:25:24;;;;;;;25.83;13.00;;;;;;;-0.37;100.00;103213.44;2568140;30;138127;-38
2022/01/14 07:27:52;;;;;;;;;;;;;;;-0.41;100.00;103203.84;2569269;30;137640;-38
2022/01/14 07:30:20;;;;;;;27.25;12.80;;;;;;;-0.47;100.00;103199.66;2569104;30;138095;-38
2022/01/14 07:32:48;;;;;;;26.25;12.18;;;;;;;-0.43;100.00;103214.63;2569676;30;137100;-38
2022/01/14 07:35:16;;;;;;;27.50;13.68;;;;;;;-0.45;100.00;103216.53;2570128;30;136930;-38
2022/01/14 07:37:44;;;;;;;24.85;13.40;;;;;;;-0.39;100.00;103218.03;2569115;30;137256;-39
2022/01/14 07:40:12;;;;;;;;;;;;;;;-0.37;100.00;103197.34;2568047;30;137237;-38
2022/01/14 07:42:40;;;;;;;23.90;12.02;;;;;;;-0.40;100.00;103221.66;2570935;30;138131;-39
2022/01/14 07:45:08;;;;;;;;;;;;;;;-0.40;100.00;103211.78;2570016;30;139021;-39
2022/01/14 07:47:36;;;;;;;24.30;12.30;;;;;;;-0.41;100.00;103220.78;2569706;30;139223;-38
2022/01/14 07:50:04;;;;;;;26.45;12.30;;;;;;;-0.38;100.00;103209.03;2569007;30;137053;-39
2022/01/14 07:52:32;;;;;;;27.38;12.60;;;;;;;-0.39;100.00;103212.66;2567462;30;138902;-38
2022/01/14 07:55:00;;;;;;;;;;;;;;;-0.41;100.00;103214.56;2571198;30;138037;-39
2022/01/14 07:57:28;;;;;;;32.33;12.07;;;;;;;-0.36;100.00;103199.97;2568334;30;137428;-38
2022/01/14 07:59:56;;;;;;;25.05;12.75;;;;;;;-0.31;100.00;103197.03;2569880;30;137409;-39
2022/01/14 08:02:25;;;;;;;;;;;;;;;-0.32;100.00;103203.34;2569673;30;139200;-39
2022/01/14 08:04:54;;;;;;;24.15;12.38;;;;;;;-0.33;100.00;103205.16;2572054;30;137306;-39
2022/01/14 08:07:24;;;;;;;30.35;12.93;;;;;;;-0.35;100.00;103212.44;2568471;30;138519;-39
2022/01/14 08:09:53;;;;;;;26.05;12.48;;;;;;;-0.33;100.00;103199.81;2570008;30;137663;-38
2022/01/14 08:12:21;;;;;;;29.38;12.82;;;;;;;-0.31;100.00;103203.28;2568626;30;138093;-39
2022/01/14 08:14:49;;;;;;;28.10;13.18;;;;;;;-0.31;100.00;103211.31;2569150;30;138654;-39
2022/01/14 08:17:20;;;;;;;;;;;;;;;-0.28;100.00;103207.59;2569624;30;139209;-39
2022/01/14 08:19:49;;;;;;;26.48;13.43;;;;;;;-0.23;100.00;103205.53;2569326;30;137392;-38
2022/01/14 08:22:17;;;;;;;22.10;12.63;;;;;;;-0.26;100.00;103208.41;2567955;30;137303;-38
2022/01/14 08:24:44;;;;;;;26.88;12.85;;;;;;;-0.20;100.00;103242.94;2569649;30;137384;-38
2022/01/14 08:27:12;;;;;;;;;;;;;;;-0.17;100.00;103234.72;2570335;30;137560;-38
2022/01/14 08:29:41;;;;;;;25.90;12.60;;;;;;;-0.13;100.00;103223.81;2569611;30;137033;-38
2022/01/14 08:32:09;;;;;;;30.48;13.68;;;;;;;-0.10;100.00;103223.66;2571042;30;138177;-40
2022/01/14 08:34:37;;;;;;;25.58;12.70;;;;;;;-0.10;100.00;103235.28;2572439;30;137712;-38
2022/01/14 08:37:06;;;;;;;26.55;13.38;;;;;;;-0.08;100.00;103219.94;2569559;30;138383;-38
2022/01/14 08:39:34;;;;;;;27.17;14.07;;;;;;;0.00;100.00;103200.75;2569350;30;138860;-38
2022/01/14 08:42:04;;;;;;;31.48;14.32;;;;;;;0.01;100.00;103207.84;2570430;30;138453;-38
2022/01/14 08:44:32;;;;;;;27.42;13.98;;;;;;;-0.02;100.00;103211.56;2569370;30;140424;-39
2022/01/14 08:47:00;;;;;;;28.58;14.27;;;;;;;-0.02;100.00;103213.34;2568693;30;138939;-39
2022/01/14 08:49:28;;;;;;;27.98;14.27;;;;;;;0.01;100.00;103223.06;2569920;30;138421;-38
2022/01/14 08:51:56;;;;;;;;;;;;;;;0.03;100.00;103221.16;2567906;30;138491;-39
2022/01/14 08:54:25;;;;;;;26.95;12.75;;;;;;;0.05;100.00;103221.94;2567463;30;137195;-38
2022/01/14 08:56:53;;;;;;;31.95;14.55;;;;;;;0.06;100.00;103218.31;2567977;30;138174;-38
2022/01/14 08:59:21;;;;;;;27.08;13.43;;;;;;;0.12;100.00;103228.69;2569916;30;137252;-38
2022/01/14 09:01:49;;;;;;;28.13;14.68;;;;;;;0.11;100.00;103219.81;2568795;30;138170;-39
2022/01/14 09:04:17;;;;;;;40.75;15.38;;;;;;;0.16;100.00;103224.03;2568050;30;137366;-39
2022/01/14 09:06:45;;;;;;;;;;;;;;;0.25;100.00;103220.84;2568356;30;138293;-38
2022/01/14 09:09:13;;;;;;;28.50;13.73;;;;;;;0.21;100.00;103219.28;2569195;30;137970;-38
2022/01/14 09:11:42;;;;;;;27.05;14.23;;;;;;;0.30;100.00;103231.34;2565608;30;137506;-38
2022/01/14 09:14:10;;;;;;;32.10;15.02;;;;;;;0.38;100.00;103231.75;2571289;30;137867;-38
2022/01/14 09:16:38;;;;;;;31.50;14.88;;;;;;;0.40;100.00;103235.25;2570153;30;138782;-39
2022/01/14 09:19:06;;;;;;;;;;;;;;;0.34;100.00;103227.53;2570653;30;138300;-38
2022/01/14 09:21:34;;;;;;;33.47;14.73;;;;;;;0.38;100.00;103229.97;2567728;30;139027;-38
2022/01/14 09:24:04;;;;;;;;;;;;;;;0.38;100.00;103229.97;2569146;30;137745;-38
2022/01/14 09:26:34;;;;;;;30.63;14.95;;;;;;;0.37;100.00;103238.97;2571391;30;138331;-38
2022/01/14 09:29:04;;;;;;;33.00;15.82;;;;;;;0.45;100.00;103251.09;2569034;30;137076;-38
2022/01/14 09:31:32;;;;;;;31.45;15.85;;;;;;;0.40;100.00;103237.94;2569986;30;137238;-39
2022/01/14 09:34:00;;;;;;;34.38;16.05;;;;;;;0.45;100.00;103251.09;2568723;30;137569;-39
2022/01/14 09:36:28;;;;;;;28.95;14.93;;;;;;;0.48;100.00;103261.66;2568908;30;138300;-39
2022/01/14 09:38:57;;;;;;;;;;;;;;;0.43;100.00;103265.47;2569863;30;137257;-38
2022/01/14 09:41:25;;;;;;;31.20;14.90;;;;;;;0.46;100.00;103252.81;2570336;30;137196;-40
2022/01/14 09:43:54;;;;;;;;;;;;;;;0.47;100.00;103257.25;2567766;30;137746;-38
2022/01/14 09:46:22;;;;;;;37.40;16.63;;;;;;;0.53;100.00;103256.91;2570315;30;139164;-38
2022/01/14 09:48:50;;;;;;;34.88;16.13;;;;;;;0.49;100.00;103248.16;2570356;30;137532;-38
2022/01/14 09:51:19;;;;;;;35.17;15.43;;;;;;;0.47;100.00;103262.63;2570215;30;137846;-39
2022/01/14 09:53:47;;;;;;;33.97;16.73;;;;;;;0.55;100.00;103273.81;2570238;30;137170;-38
2022/01/14 09:56:20;;;;;;;31.38;15.05;;;;;;;0.55;100.00;103271.13;2569730;30;138471;-38
2022/01/14 09:58:50;;;;;;;33.20;16.25;;;;;;;0.59;100.00;103286.13;2567609;30;138083;-38
2022/01/14 10:01:20;;;;;;;36.00;16.00;;;;;;;0.58;100.00;103281.72;2568548;30;137646;-38
2022/01/14 10:03:52;;;;;;;39.28;15.85;;;;;;;0.65;100.00;103272.34;2569732;30;136808;-38
2022/01/14 10:06:45;;;;;;;32.00;15.38;;;;;;;0.70;100.00;103278.31;2569538;30;137402;-38
2022/01/14 10:09:16;;;;;;;31.75;14.75;;;;;;;0.77;100.00;103280.66;2571359;30;137935;-38
2022/01/14 10:12:05;;;;;;;37.00;15.60;;;;;;;0.75;100.00;103282.56;2569312;30;137739;-38
2022/01/14 10:14:35;;;;;;;33.87;15.70;;;;;;;0.76;100.00;103274.41;2569571;30;137367;-41
2022/01/14 10:17:06;;;;;;;40.90;16.67;;;;;;;0.80;100.00;103269.75;2569427;30;137433;-38
2022/01/14 10:19:37;;;;;;;36.58;16.17;;;;;;;0.91;100.00;103277.16;2571114;30;138470;-38
2022/01/14 10:22:45;;;;;;;35.10;16.98;;;;;;;1.06;100.00;103278.09;2568641;30;138443;-38
2022/01/14 10:25:16;;;;;;;38.90;17.23;;;;;;;1.04;100.00;103269.25;2569714;30;138225;-38
2022/01/14 10:27:54;;;;;;;35.38;15.68;;;;;;;1.06;100.00;103270.03;2573739;30;137187;-38
2022/01/14 10:30:33;;;;;;;32.42;15.70;;;;;;;1.09;100.00;103267.19;2569986;30;137036;-38
2022/01/14 10:33:05;;;;;;;35.20;15.75;;;;;;;1.11;100.00;103258.06;2569559;30;138194;-38
2022/01/14 10:35:42;;;;;;;39.20;16.60;;;;;;;1.18;100.00;103252.31;2568066;30;137727;-39
2022/01/14 10:38:15;;;;;;;35.90;17.15;;;;;;;1.22;100.00;103252.06;2569727;30;138428;-39
2022/01/14 10:40:48;;;;;;;38.38;17.13;;;;;;;1.18;100.00;103250.50;2570241;30;137359;-38
2022/01/14 10:43:20;;;;;;;37.67;16.35;;;;;;;1.14;100.00;103243.59;2569615;30;138642;-38
2022/01/14 10:45:55;;;;;;;33.35;16.70;;;;;;;1.20;100.00;103235.13;2568793;30;138632;-39
2022/01/14 10:48:32;;;;;;;38.85;16.90;;;;;;;1.22;100.00;103227.84;2570236;30;136684;-38
2022/01/14 10:51:06;;;;;;;33.88;15.75;;;;;;;1.27;100.00;103231.13;2568778;30;137429;-38
2022/01/14 10:53:37;;;;;;;43.20;16.75;;;;;;;1.29;100.00;103218.44;2569939;30;137542;-39
2022/01/14 10:56:14;;;;;;;41.88;16.27;;;;;;;1.36;100.00;103224.31;2569829;30;137628;-38
2022/01/14 10:58:46;;;;;;;36.72;16.67;;;;;;;1.41;100.00;103232.13;2569050;30;138150;-39
2022/01/14 11:01:19;;;;;;;34.65;16.58;;;;;;;1.44;100.00;103223.88;2567620;30;136744;-38
2022/01/14 11:03:56;;;;;;;35.95;16.95;;;;;;;1.51;100.00;103221.69;2567453;30;138289;-39
2022/01/14 11:06:29;;;;;;;35.55;15.38;;;;;;;1.58;100.00;103215.81;2565400;30;137143;-38
2022/01/14 11:08:57;;;;;;;37.20;16.27;;;;;;;1.60;100.00;103214.88;2568000;30;138505;-38
2022/01/14 11:11:26;;;;;;;38.67;16.58;;;;;;;1.59;100.00;103200.53;2568591;30;138082;-39
2022/01/14 11:13:55;;;;;;;36.72;16.13;;;;;;;1.59;100.00;103205.91;2570426;30;137756;-38
2022/01/14 11:16:23;;;;;;;33.85;15.65;;;;;;;1.63;100.00;103203.91;2570352;30;137820;-39
2022/01/14 11:18:53;;;;;;;36.15;15.70;;;;;;;1.70;100.00;103210.63;2569612;30;138700;-38
2022/01/14 11:24:12;;;;;;;33.47;14.82;;;;;;;1.65;100.00;103208.22;2566763;30;138330;-39
2022/01/14 11:26:43;;;;;;;36.58;15.18;;;;;;;1.65;100.00;103210.06;2570007;30;137857;-38
2022/01/14 11:29:16;;;;;;;34.80;15.48;;;;;;;1.62;100.00;103212.94;2568431;30;139222;-39
2022/01/14 11:31:44;;;;;;;36.40;15.65;;;;;;;1.68;100.00;103207.19;2570985;30;137576;-39
2022/01/14 11:34:43;;;;;;;36.78;15.77;;;;;;;1.77;100.00;103206.59;2570858;30;138385;-39
2022/01/14 11:37:17;;;;;;;39.60;16.90;;;;;;;1.78;100.00;103208.31;2569179;30;136902;-38
2022/01/14 11:40:06;;;;;;;37.15;17.15;;;;;;;1.74;100.00;103206.78;2571036;30;137446;-38
2022/01/14 11:42:44;;;;;;;44.38;17.77;;;;;;;1.78;100.00;103204.78;2570013;30;137497;-39
2022/01/14 11:45:44;;;;;;;41.45;16.33;;;;;;;1.79;100.00;103199.28;2571482;30;137281;-38